createdAt,value
2023-03-07T00:02:08.724Z,3.15
2023-03-07T00:04:36.609Z,3.32
2023-03-07T00:07:05.976Z,2.94
2023-03-07T00:09:34.176Z,3.08
2023-03-07T00:12:02.000Z,3.14
2023-03-07T00:14:29.900Z,3.16
2023-03-07T00:16:58.262Z,3.09
2023-03-07T00:19:26.221Z,2.90
2023-03-07T00:21:54.205Z,2.92
2023-03-07T00:24:23.530Z,2.97
2023-03-07T00:26:51.456Z,3.08
2023-03-07T00:29:19.410Z,2.98
2023-03-07T00:31:47.590Z,3.12
2023-03-07T00:34:15.518Z,3.30
2023-03-07T00:36:43.422Z,3.29
2023-03-07T00:39:11.383Z,3.32
2023-03-07T00:41:40.839Z,3.24
2023-03-07T00:44:08.753Z,3.48
2023-03-07T00:46:36.788Z,3.37
2023-03-07T00:49:04.958Z,3.49
2023-03-07T00:51:32.817Z,3.50
2023-03-07T00:54:00.728Z,3.39
2023-03-07T00:56:28.925Z,3.09
2023-03-07T00:58:58.215Z,3.28
2023-03-07T01:01:27.065Z,3.09
2023-03-07T01:03:56.071Z,3.12
2023-03-07T01:06:26.037Z,3.05
2023-03-07T01:08:56.474Z,3.07
2023-03-07T01:11:25.348Z,3.19
2023-03-07T01:13:56.375Z,3.26
2023-03-07T01:16:28.231Z,3.23
2023-03-07T01:18:58.211Z,3.07
2023-03-07T01:21:29.664Z,3.04
2023-03-07T01:23:59.520Z,2.85
2023-03-07T01:26:30.531Z,3.16
2023-03-07T01:29:00.576Z,3.11
2023-03-07T01:31:32.458Z,2.90
2023-03-07T01:34:03.059Z,2.99
2023-03-07T01:36:35.625Z,3.23
2023-03-07T01:39:07.699Z,3.19
2023-03-07T01:41:39.105Z,3.19
2023-03-07T01:44:16.805Z,3.08
2023-03-07T01:46:49.285Z,3.01
2023-03-07T01:49:23.580Z,2.94
2023-03-07T01:52:03.835Z,2.99
2023-03-07T01:54:35.182Z,3.08
2023-03-07T01:57:05.081Z,3.29
2023-03-07T01:59:35.981Z,3.39
2023-03-07T02:02:11.918Z,3.12
2023-03-07T02:04:45.732Z,2.99
2023-03-07T02:07:14.872Z,3.28
2023-03-07T02:09:47.437Z,3.37
2023-03-07T02:12:16.475Z,3.08
2023-03-07T02:14:46.945Z,3.35
2023-03-07T02:17:16.607Z,3.31
2023-03-07T02:19:54.449Z,3.60
2023-03-07T02:22:22.394Z,3.20
2023-03-07T02:24:53.969Z,3.46
2023-03-07T02:27:25.669Z,3.27
2023-03-07T02:29:54.060Z,3.33
2023-03-07T02:32:22.657Z,2.96
2023-03-07T02:34:50.682Z,3.50
2023-03-07T02:37:26.445Z,3.39
2023-03-07T02:39:55.973Z,3.66
2023-03-07T02:42:27.869Z,3.64
2023-03-07T02:45:10.923Z,3.48
2023-03-07T02:47:42.371Z,3.34
2023-03-07T02:50:12.765Z,3.47
2023-03-07T02:52:43.296Z,3.39
2023-03-07T02:55:12.719Z,3.58
2023-03-07T02:57:48.010Z,3.82
2023-03-07T03:00:17.427Z,3.77
2023-03-07T03:02:45.978Z,3.73
2023-03-07T03:05:14.148Z,3.70
2023-03-07T03:07:42.032Z,3.73
2023-03-07T03:10:10.728Z,3.72
2023-03-07T03:12:38.690Z,3.30
2023-03-07T03:15:10.293Z,3.68
2023-03-07T03:17:38.686Z,3.57
2023-03-07T03:20:09.373Z,3.79
2023-03-07T03:22:37.363Z,3.70
2023-03-07T03:25:09.876Z,3.70
2023-03-07T03:27:39.826Z,3.71
2023-03-07T03:30:12.130Z,3.90
2023-03-07T03:32:41.595Z,3.66
2023-03-07T03:35:11.913Z,3.89
2023-03-07T03:37:40.380Z,3.91
2023-03-07T03:40:14.571Z,3.86
2023-03-07T03:42:44.182Z,3.89
2023-03-07T03:45:15.817Z,3.80
2023-03-07T03:47:43.737Z,3.81
2023-03-07T03:50:12.481Z,3.84
2023-03-07T03:52:40.839Z,3.79
2023-03-07T03:55:10.409Z,3.69
2023-03-07T03:57:38.820Z,3.89
2023-03-07T04:00:10.765Z,3.98
2023-03-07T04:02:43.362Z,3.74
2023-03-07T04:05:15.283Z,3.96
2023-03-07T04:07:43.282Z,4.03
2023-03-07T04:10:12.250Z,4.04
2023-03-07T04:12:40.302Z,3.91
2023-03-07T04:15:09.542Z,4.01
2023-03-07T04:17:37.439Z,4.08
2023-03-07T04:20:14.212Z,3.79
2023-03-07T04:22:42.308Z,4.16
2023-03-07T04:25:11.814Z,4.16
2023-03-07T04:27:39.664Z,4.27
2023-03-07T04:30:09.544Z,4.27
2023-03-07T04:32:37.999Z,4.34
2023-03-07T04:35:07.854Z,4.20
2023-03-07T04:37:35.706Z,4.15
2023-03-07T04:40:03.727Z,4.08
2023-03-07T04:42:31.600Z,4.33
2023-03-07T04:45:00.749Z,4.28
2023-03-07T04:47:28.820Z,4.33
2023-03-07T04:49:56.764Z,4.12
2023-03-07T04:52:26.159Z,4.25
2023-03-07T04:54:55.906Z,4.24
2023-03-07T04:57:24.082Z,4.34
2023-03-07T04:59:52.257Z,4.07
2023-03-07T05:02:21.958Z,4.01
2023-03-07T05:04:49.837Z,4.23
2023-03-07T05:07:17.879Z,3.93
2023-03-07T05:09:47.568Z,4.04
2023-03-07T05:12:15.854Z,4.21
2023-03-07T05:14:43.768Z,3.94
2023-03-07T05:17:11.891Z,4.09
2023-03-07T05:19:39.837Z,3.96
2023-03-07T05:22:07.987Z,3.97
2023-03-07T05:24:36.015Z,3.98
2023-03-07T05:27:06.195Z,3.66
2023-03-07T05:29:34.070Z,3.96
2023-03-07T05:32:02.644Z,4.22
2023-03-07T05:34:30.693Z,4.28
2023-03-07T05:36:59.115Z,4.11
2023-03-07T05:39:28.658Z,4.32
2023-03-07T05:41:56.534Z,4.39
2023-03-07T05:44:26.131Z,4.41
2023-03-07T05:46:56.307Z,4.27
2023-03-07T05:49:25.000Z,4.14
2023-03-07T05:51:53.457Z,4.29
2023-03-07T05:54:22.471Z,4.08
2023-03-07T05:56:50.463Z,3.97
2023-03-07T05:59:18.904Z,4.10
2023-03-07T06:01:50.736Z,4.24
2023-03-07T06:04:18.907Z,4.39
2023-03-07T06:06:46.888Z,4.16
2023-03-07T06:09:14.759Z,4.11
2023-03-07T06:11:43.055Z,4.21
2023-03-07T06:14:11.525Z,4.17
2023-03-07T06:16:39.407Z,4.37
2023-03-07T06:19:09.228Z,4.44
2023-03-07T06:21:37.389Z,4.33
2023-03-07T06:24:07.277Z,4.38
2023-03-07T06:26:35.613Z,4.31
2023-03-07T06:29:04.553Z,4.19
2023-03-07T06:31:32.775Z,4.54
2023-03-07T06:34:01.386Z,4.70
2023-03-07T06:36:30.855Z,4.53
2023-03-07T06:39:02.124Z,4.72
2023-03-07T06:41:30.144Z,4.83
2023-03-07T06:44:00.575Z,4.70
2023-03-07T06:46:31.721Z,4.36
2023-03-07T06:49:02.830Z,4.62
2023-03-07T06:51:32.216Z,4.87
2023-03-07T06:54:01.044Z,4.85
2023-03-07T06:56:30.358Z,5.01
2023-03-07T06:58:59.530Z,4.87
2023-03-07T07:01:27.547Z,4.93
2023-03-07T07:03:58.159Z,4.91
2023-03-07T07:06:27.420Z,4.84
2023-03-07T07:08:58.006Z,4.93
2023-03-07T07:11:30.006Z,5.06
2023-03-07T07:13:58.311Z,4.88
2023-03-07T07:16:26.237Z,5.06
2023-03-07T07:18:54.460Z,5.11
2023-03-07T07:21:23.038Z,5.28
2023-03-07T07:23:51.123Z,5.43
2023-03-07T07:26:20.955Z,5.26
2023-03-07T07:28:48.913Z,5.18
2023-03-07T07:31:16.928Z,5.37
2023-03-07T07:33:46.429Z,5.18
2023-03-07T07:36:15.941Z,5.48
2023-03-07T07:38:44.006Z,5.54
2023-03-07T07:41:13.244Z,5.42
2023-03-07T07:43:43.279Z,5.19
2023-03-07T07:46:22.173Z,5.56
2023-03-07T07:48:50.522Z,5.64
2023-03-07T07:51:19.473Z,5.77
2023-03-07T07:53:47.810Z,5.43
2023-03-07T07:56:15.952Z,5.42
2023-03-07T07:58:45.338Z,5.50
2023-03-07T08:01:15.063Z,5.69
2023-03-07T08:03:43.061Z,5.72
2023-03-07T08:06:11.505Z,5.63
2023-03-07T08:08:39.691Z,5.50
2023-03-07T08:11:08.475Z,5.83
2023-03-07T08:13:36.339Z,5.89
2023-03-07T08:16:11.816Z,5.97
2023-03-07T08:18:39.846Z,6.03
2023-03-07T08:21:08.688Z,5.82
2023-03-07T08:23:37.004Z,5.72
2023-03-07T08:26:06.325Z,5.87
2023-03-07T08:28:34.593Z,5.90
2023-03-07T08:31:08.168Z,5.68
2023-03-07T08:33:37.604Z,5.77
2023-03-07T08:36:06.477Z,5.97
2023-03-07T08:38:34.747Z,5.87
2023-03-07T08:41:03.929Z,6.20
2023-03-07T08:43:33.311Z,6.24
2023-03-07T08:46:01.523Z,6.52
2023-03-07T08:48:29.915Z,6.43
2023-03-07T08:51:05.185Z,6.36
2023-03-07T08:53:33.248Z,6.41
2023-03-07T08:56:01.140Z,6.56
2023-03-07T08:58:29.021Z,6.45
2023-03-07T09:00:59.093Z,6.74
2023-03-07T09:03:27.052Z,6.66
2023-03-07T09:05:54.904Z,6.87
2023-03-07T09:08:24.407Z,6.75
2023-03-07T09:10:52.305Z,7.01
2023-03-07T09:13:20.186Z,6.96
2023-03-07T09:15:48.180Z,7.13
2023-03-07T09:18:16.017Z,6.55
2023-03-07T09:20:43.842Z,6.86
2023-03-07T09:23:11.763Z,7.00
2023-03-07T09:25:40.987Z,6.99
2023-03-07T09:28:08.800Z,6.55
2023-03-07T09:30:37.708Z,6.95
2023-03-07T09:33:05.583Z,6.73
2023-03-07T09:35:33.406Z,7.07
2023-03-07T09:38:01.320Z,6.77
2023-03-07T09:40:29.434Z,7.22
2023-03-07T09:43:12.816Z,7.30
2023-03-07T09:46:03.901Z,7.38
2023-03-07T09:48:58.021Z,7.16
2023-03-07T09:51:29.353Z,7.49
2023-03-07T09:54:01.707Z,7.57
2023-03-07T09:56:34.118Z,7.65
2023-03-07T09:59:22.084Z,7.45
2023-03-07T10:01:53.926Z,7.92
2023-03-07T10:04:28.821Z,7.56
2023-03-07T10:06:59.280Z,7.63
2023-03-07T10:09:28.211Z,7.58
2023-03-07T10:12:18.576Z,8.11
2023-03-07T10:15:10.139Z,7.92
2023-03-07T10:17:57.908Z,7.78
2023-03-07T10:20:33.605Z,7.70
2023-03-07T10:23:14.135Z,8.02
2023-03-07T10:25:51.053Z,7.98
2023-03-07T10:28:23.421Z,7.89
2023-03-07T10:30:55.823Z,8.02
2023-03-07T10:33:23.906Z,7.49
2023-03-07T10:35:58.391Z,7.64
2023-03-07T10:38:31.437Z,7.13
2023-03-07T10:41:03.712Z,7.31
2023-03-07T10:43:33.342Z,7.24
2023-03-07T10:46:23.940Z,7.51
2023-03-07T10:48:55.712Z,7.66
2023-03-07T10:51:48.057Z,7.50
2023-03-07T10:54:18.802Z,7.18
2023-03-07T10:57:06.024Z,7.45
2023-03-07T10:59:34.155Z,7.17
2023-03-07T11:02:05.887Z,7.26
2023-03-07T11:04:45.129Z,7.54
2023-03-07T11:07:28.150Z,7.44
2023-03-07T11:09:56.889Z,7.30
2023-03-07T11:12:26.344Z,7.04
2023-03-07T11:14:55.948Z,7.55
2023-03-07T11:17:28.438Z,7.57
2023-03-07T11:19:57.477Z,7.79
2023-03-07T11:22:28.977Z,7.27
2023-03-07T11:25:01.289Z,7.80
2023-03-07T11:27:36.174Z,7.89
2023-03-07T11:30:22.191Z,7.58
2023-03-07T11:33:11.505Z,7.66
2023-03-07T11:36:02.878Z,7.23
2023-03-07T11:38:46.842Z,7.77
2023-03-07T11:41:25.536Z,7.85
2023-03-07T11:44:19.343Z,7.93
2023-03-07T11:46:58.456Z,7.97
2023-03-07T11:49:40.589Z,7.79
2023-03-07T11:52:22.595Z,7.65
2023-03-07T11:54:57.464Z,7.53
2023-03-07T11:57:44.802Z,7.45
2023-03-07T12:00:36.830Z,7.66
2023-03-07T12:03:31.339Z,7.34
2023-03-07T12:06:15.570Z,7.50
2023-03-07T12:09:01.844Z,7.47
2023-03-07T12:11:53.116Z,7.30
2023-03-07T12:14:27.040Z,7.29
2023-03-07T12:17:07.894Z,7.60
2023-03-07T12:19:51.605Z,7.11
2023-03-07T12:22:31.310Z,7.32
2023-03-07T12:25:09.255Z,7.01
2023-03-07T12:27:42.875Z,7.28
2023-03-07T12:30:19.788Z,7.45
2023-03-07T12:32:48.833Z,6.83
2023-03-07T12:35:25.549Z,7.39
2023-03-07T12:38:00.687Z,7.40
2023-03-07T12:40:36.445Z,6.83
2023-03-07T12:43:17.470Z,7.00
2023-03-07T12:45:51.237Z,7.25
2023-03-07T12:48:24.479Z,7.01
2023-03-07T12:50:58.454Z,7.18
2023-03-07T12:53:34.422Z,7.11
2023-03-07T12:56:11.098Z,7.40
2023-03-07T12:58:43.709Z,7.08
2023-03-07T13:01:18.607Z,6.94
2023-03-07T13:03:53.523Z,6.81
2023-03-07T13:06:23.519Z,6.98
2023-03-07T13:08:55.483Z,6.65
2023-03-07T13:11:25.328Z,6.70
2023-03-07T13:13:56.164Z,6.58
2023-03-07T13:16:42.054Z,6.63
2023-03-07T13:19:51.536Z,6.71
2023-03-07T13:22:57.887Z,6.83
2023-03-07T13:25:51.916Z,6.71
2023-03-07T13:28:41.122Z,6.86
2023-03-07T13:31:38.276Z,6.54
2023-03-07T13:34:46.431Z,6.84
2023-03-07T13:37:47.682Z,6.45
2023-03-07T13:40:50.000Z,6.88
2023-03-07T13:43:54.424Z,6.82
2023-03-07T13:46:51.674Z,6.63
2023-03-07T13:49:43.541Z,6.52
2023-03-07T13:52:24.443Z,6.31
2023-03-07T13:54:52.948Z,6.48
2023-03-07T13:57:27.113Z,6.40
2023-03-07T13:59:56.655Z,6.68
2023-03-07T14:02:25.873Z,6.45
2023-03-07T14:04:57.790Z,6.61
2023-03-07T14:07:29.743Z,6.46
2023-03-07T14:09:59.040Z,6.46
2023-03-07T14:12:37.234Z,6.21
2023-03-07T14:15:22.408Z,6.59
2023-03-07T14:18:04.285Z,6.43
2023-03-07T14:20:51.201Z,6.67
2023-03-07T14:23:38.200Z,6.66
2023-03-07T14:26:13.948Z,6.45
2023-03-07T14:28:49.983Z,6.58
2023-03-07T14:31:25.276Z,6.37
2023-03-07T14:33:55.230Z,6.67
2023-03-07T14:36:25.986Z,6.47
2023-03-07T14:38:58.127Z,6.46
2023-03-07T14:41:38.000Z,6.52
2023-03-07T14:44:34.181Z,6.55
2023-03-07T14:47:15.847Z,6.82
2023-03-07T14:49:55.639Z,6.64
2023-03-07T14:52:31.376Z,6.50
2023-03-07T14:55:03.033Z,6.80
2023-03-07T14:57:34.723Z,6.70
2023-03-07T15:00:16.549Z,6.38
2023-03-07T15:02:48.901Z,6.48
2023-03-07T15:05:21.452Z,6.39
2023-03-07T15:07:49.597Z,6.31
2023-03-07T15:10:20.206Z,6.72
2023-03-07T15:12:52.363Z,6.93
2023-03-07T15:15:29.613Z,6.54
2023-03-07T15:18:02.016Z,6.73
2023-03-07T15:20:32.032Z,7.00
2023-03-07T15:23:07.670Z,7.05
2023-03-07T15:25:38.885Z,6.75
2023-03-07T15:28:17.189Z,6.71
2023-03-07T15:30:50.511Z,6.47
2023-03-07T15:33:25.136Z,6.76
2023-03-07T15:36:27.337Z,6.65
2023-03-07T15:39:22.733Z,6.63
2023-03-07T15:42:01.300Z,6.76
2023-03-07T15:44:29.232Z,6.53
2023-03-07T15:47:00.010Z,6.60
2023-03-07T15:49:38.053Z,6.40
2023-03-07T15:52:07.968Z,6.54
2023-03-07T15:54:39.502Z,6.63
2023-03-07T15:57:15.796Z,6.45
2023-03-07T15:59:50.048Z,6.39
2023-03-07T16:02:37.726Z,6.34
2023-03-07T16:05:06.790Z,6.63
2023-03-07T16:07:36.031Z,6.45
2023-03-07T16:10:04.157Z,6.59
2023-03-07T16:12:33.187Z,6.59
2023-03-07T16:15:04.201Z,6.38
2023-03-07T16:17:35.469Z,6.67
2023-03-07T16:20:04.414Z,6.47
2023-03-07T16:22:32.261Z,6.47
2023-03-07T16:25:02.480Z,6.48
2023-03-07T16:27:30.470Z,6.45
2023-03-07T16:29:59.624Z,6.50
2023-03-07T16:32:27.466Z,6.21
2023-03-07T16:34:55.340Z,6.20
2023-03-07T16:37:23.170Z,6.33
2023-03-07T16:39:51.003Z,6.38
2023-03-07T16:42:23.185Z,6.27
2023-03-07T16:44:52.808Z,6.50
2023-03-07T16:47:20.762Z,6.46
2023-03-07T16:49:49.023Z,6.41
2023-03-07T16:52:16.881Z,6.31
2023-03-07T16:54:44.772Z,6.31
2023-03-07T16:57:15.536Z,6.31
2023-03-07T16:59:47.060Z,6.40
2023-03-07T17:02:17.351Z,6.24
2023-03-07T17:04:45.508Z,6.36
2023-03-07T17:07:17.527Z,6.42
2023-03-07T17:09:45.386Z,6.37
2023-03-07T17:12:13.537Z,6.10
2023-03-07T17:14:41.771Z,6.22
2023-03-07T17:17:18.278Z,6.25
2023-03-07T17:19:46.174Z,6.28
2023-03-07T17:22:14.136Z,6.29
2023-03-07T17:24:42.046Z,6.33
2023-03-07T17:27:10.302Z,6.45
2023-03-07T17:29:42.885Z,6.06
2023-03-07T17:32:12.771Z,6.20
2023-03-07T17:34:40.846Z,5.93
2023-03-07T17:37:08.782Z,6.10
2023-03-07T17:39:36.784Z,6.19
2023-03-07T17:42:04.982Z,5.92
2023-03-07T17:44:33.536Z,6.07
2023-03-07T17:47:01.596Z,6.10
2023-03-07T17:49:36.551Z,6.03
2023-03-07T17:52:08.097Z,6.06
2023-03-07T17:54:36.100Z,6.03
2023-03-07T17:57:04.477Z,5.86
2023-03-07T17:59:33.529Z,5.96
2023-03-07T18:02:01.456Z,6.23
2023-03-07T18:04:31.278Z,6.22
2023-03-07T18:07:01.206Z,6.15
2023-03-07T18:09:29.154Z,5.87
2023-03-07T18:11:57.112Z,6.07
2023-03-07T18:14:25.588Z,6.07
2023-03-07T18:16:53.645Z,6.05
2023-03-07T18:19:26.621Z,6.10
2023-03-07T18:21:56.129Z,5.63
2023-03-07T18:24:27.525Z,6.07
2023-03-07T18:26:56.246Z,5.96
2023-03-07T18:29:25.006Z,5.94
2023-03-07T18:31:53.317Z,6.10
2023-03-07T18:34:21.252Z,6.03
2023-03-07T18:36:51.696Z,6.12
2023-03-07T18:39:20.527Z,6.06
2023-03-07T18:41:51.307Z,6.01
2023-03-07T18:44:19.740Z,6.06
2023-03-07T18:46:47.966Z,6.07
2023-03-07T18:49:16.174Z,5.95
2023-03-07T18:51:45.795Z,6.07
2023-03-07T18:54:14.059Z,6.13
2023-03-07T18:56:42.700Z,6.16
2023-03-07T18:59:11.927Z,5.97
2023-03-07T19:01:39.891Z,5.95
2023-03-07T19:04:09.153Z,6.02
2023-03-07T19:06:40.495Z,5.91
2023-03-07T19:09:09.694Z,5.94
2023-03-07T19:11:37.535Z,5.99
2023-03-07T19:14:05.504Z,5.73
2023-03-07T19:16:34.847Z,5.92
2023-03-07T19:19:03.765Z,5.76
2023-03-07T19:21:32.202Z,5.66
2023-03-07T19:24:03.481Z,5.91
2023-03-07T19:26:31.473Z,5.89
2023-03-07T19:29:00.098Z,5.93
2023-03-07T19:31:29.458Z,5.88
2023-03-07T19:33:59.509Z,5.88
2023-03-07T19:36:29.534Z,5.60
2023-03-07T19:39:01.159Z,5.72
2023-03-07T19:41:31.431Z,5.73
2023-03-07T19:44:00.908Z,5.58
2023-03-07T19:46:29.110Z,5.33
2023-03-07T19:48:58.706Z,5.71
2023-03-07T19:51:27.864Z,5.72
2023-03-07T19:53:57.535Z,5.84
2023-03-07T19:56:28.257Z,5.85
2023-03-07T19:58:57.963Z,5.89
2023-03-07T20:01:27.171Z,5.88
2023-03-07T20:03:56.077Z,5.55
2023-03-07T20:06:27.680Z,5.69
2023-03-07T20:08:56.385Z,5.45
2023-03-07T20:11:27.442Z,5.48
2023-03-07T20:13:56.327Z,5.33
2023-03-07T20:16:27.106Z,5.57
2023-03-07T20:18:55.934Z,5.36
2023-03-07T20:21:28.166Z,5.41
2023-03-07T20:23:59.884Z,5.58
2023-03-07T20:26:29.618Z,5.51
2023-03-07T20:28:58.328Z,5.41
2023-03-07T20:31:29.082Z,5.29
2023-03-07T20:33:59.843Z,5.37
2023-03-07T20:36:30.972Z,5.57
2023-03-07T20:39:00.930Z,5.28
2023-03-07T20:41:31.729Z,5.42
2023-03-07T20:44:03.533Z,5.43
2023-03-07T20:46:32.375Z,5.64
2023-03-07T20:49:02.933Z,5.55
2023-03-07T20:51:33.863Z,5.62
2023-03-07T20:54:03.412Z,5.54
2023-03-07T20:56:33.288Z,5.44
2023-03-07T20:59:01.857Z,5.20
2023-03-07T21:01:31.340Z,5.41
2023-03-07T21:04:06.406Z,5.28
2023-03-07T21:06:46.316Z,5.52
2023-03-07T21:09:25.279Z,5.51
2023-03-07T21:11:53.197Z,5.46
2023-03-07T21:14:22.039Z,5.47
2023-03-07T21:16:50.042Z,5.42
2023-03-07T21:19:18.164Z,5.42
2023-03-07T21:21:47.499Z,5.43
2023-03-07T21:24:19.019Z,5.35
2023-03-07T21:26:47.309Z,5.42
2023-03-07T21:29:16.080Z,5.34
2023-03-07T21:31:44.050Z,5.41
2023-03-07T21:34:15.261Z,5.51
2023-03-07T21:36:43.634Z,5.49
2023-03-07T21:39:13.087Z,5.33
2023-03-07T21:41:41.009Z,5.09
2023-03-07T21:44:10.109Z,5.26
2023-03-07T21:46:38.949Z,5.23
2023-03-07T21:49:08.100Z,5.33
2023-03-07T21:51:36.555Z,5.25
2023-03-07T21:54:04.645Z,5.34
2023-03-07T21:56:34.053Z,5.12
2023-03-07T21:59:04.036Z,5.22
2023-03-07T22:01:32.145Z,5.12
2023-03-07T22:04:00.616Z,5.05
2023-03-07T22:06:29.918Z,5.00
2023-03-07T22:08:59.869Z,5.04
2023-03-07T22:11:28.136Z,5.09
2023-03-07T22:13:57.606Z,5.31
2023-03-07T22:16:25.614Z,5.13
2023-03-07T22:18:55.382Z,5.17
2023-03-07T22:21:25.045Z,5.32
2023-03-07T22:23:57.638Z,5.10
2023-03-07T22:26:26.666Z,5.21
2023-03-07T22:28:56.628Z,5.06
2023-03-07T22:31:29.189Z,4.83
2023-03-07T22:33:57.135Z,4.94
2023-03-07T22:36:25.154Z,4.96
2023-03-07T22:38:56.688Z,4.93
2023-03-07T22:41:28.159Z,5.01
2023-03-07T22:43:56.791Z,4.86
2023-03-07T22:46:27.044Z,4.92
2023-03-07T22:48:56.845Z,4.95
2023-03-07T22:51:26.465Z,4.91
2023-03-07T22:53:55.136Z,4.76
2023-03-07T22:56:25.255Z,4.97
2023-03-07T22:58:53.663Z,4.88
2023-03-07T23:01:23.515Z,4.96
2023-03-07T23:03:55.433Z,5.01
2023-03-07T23:06:24.813Z,4.86
2023-03-07T23:08:54.963Z,4.88
2023-03-07T23:11:25.701Z,4.65
2023-03-07T23:13:54.987Z,4.62
2023-03-07T23:16:26.970Z,4.70
2023-03-07T23:18:59.307Z,5.00
2023-03-07T23:21:32.095Z,4.99
2023-03-07T23:24:01.964Z,4.89
2023-03-07T23:26:32.851Z,4.70
2023-03-07T23:29:04.202Z,4.81
2023-03-07T23:31:35.717Z,4.54
2023-03-07T23:34:07.584Z,4.71
2023-03-07T23:36:36.031Z,4.78
2023-03-07T23:39:04.438Z,4.75
2023-03-07T23:41:35.288Z,4.71
2023-03-07T23:44:05.158Z,4.70
2023-03-07T23:46:33.570Z,4.66
2023-03-07T23:49:01.841Z,4.76
2023-03-07T23:51:31.479Z,4.63
2023-03-07T23:53:59.586Z,4.66
2023-03-07T23:56:28.825Z,4.36
2023-03-07T23:58:56.738Z,4.46
